This demonstration page uses our WeatherBlox Daily Observations layout. Learn more.

38.89511, -77.03637

Hourly Observations for January 2, 2015

Temp ( °F °C ) Dew Point ( °F °C ) Humidity (%) Winds ( mph kmh ) Pressure ( in mb ) Visibility ( mi km ) Precip ( " mm )
12:52 am 00:52 Partly Cloudy 39 4 23 -5 52 52 N 9 15 30.12 1020 10 16.09344 0 0
1:52 am 01:52 Mostly Cloudy 39 4 27 -3 61 61 Calm 30.15 1021 10 16.09344 0 0
2:52 am 02:52 Clear 37 3 23 -5 56 56 S 3 6 30.15 1021 10 16.09344 0 0
3:52 am 03:52 Cloudy 37 3 27 -3 65 65 Calm 30.18 1022 10 16.09344 0 0
4:52 am 04:52 Mostly Cloudy 37 3 27 -3 65 65 S 3 6 30.18 1022 10 16.09344 0 0
5:52 am 05:52 Cloudy 39 4 27 -3 61 61 Calm 30.21 1023 10 16.09344 0 0
6:52 am 06:52 Mostly Cloudy 37 3 27 -3 65 65 Calm 30.24 1024 10 16.09344 0 0
7:52 am 07:52 Cloudy 37 3 27 -3 65 65 NNW 5 7 30.27 1025 10 16.09344 0 0
8:52 am 08:52 Cloudy 39 4 21 -6 48 48 Calm 30.3 1026 10 16.09344 0 0
9:52 am 09:52 Cloudy 43 6 21 -6 42 42 Calm 30.3 1026 10 16.09344 0 0
10:52 am 10:52 Cloudy 43 6 21 -6 42 42 N 9 15 30.33 1027 10 16.09344 0 0
11:52 am 11:52 Cloudy 45 7 21 -6 39 39 N 3 6 30.3 1026 10 16.09344 0 0
12:52 pm 12:52 Cloudy 46 8 21 -6 37 37 Calm 30.3 1026 10 16.09344 0 0
1:52 pm 13:52 Cloudy 48 9 21 -6 34 34 W 5 7 30.3 1026 10 16.09344 0 0
2:52 pm 14:52 Cloudy 48 9 19 -7 32 32 WNW 7 11 30.33 1027 10 16.09344 0 0
3:52 pm 15:52 Cloudy 48 9 21 -6 34 34 N 3 6 30.33 1027 10 16.09344 0 0
4:52 pm 16:52 Cloudy 45 7 21 -6 39 39 N 6 9 30.36 1028 10 16.09344 0 0
5:52 pm 17:52 Cloudy 45 7 21 -6 39 39 N 3 6 30.36 1028 10 16.09344 0 0
6:52 pm 18:52 Mostly Cloudy 43 6 25 -4 49 49 SSE 3 6 30.39 1029 10 16.09344 0 0
7:52 pm 19:52 Mostly Cloudy 39 4 27 -3 61 61 S 3 6 30.42 1030 10 16.09344 0 0
8:52 pm 20:52 Cloudy 39 4 28 -2 65 65 Calm 30.42 1030 10 16.09344 0 0
9:52 pm 21:52 Cloudy 39 4 28 -2 65 65 Calm 30.42 1030 10 16.09344 0 0
10:52 pm 22:52 Mostly Cloudy 39 4 28 -2 65 65 Calm 30.45 1031 10 16.09344 0 0
11:52 pm 23:52 Partly Cloudy 36 2 27 -3 70 70 N 5 7 30.42 1030 10 16.09344 0 0

Powered by AerisWeather